Zenda, WI (53195)

12:15 AM CST on December 06, 2016 (GMT -0600)
Cornfield | | Change Station

Elev 965 ft 42.46 °N, 88.48 °W | Updated 4 minutes ago

Overcast
Overcast
30.4 °F
Feels Like 30 °F
N
3.0
Wind Variable Wind from SSE
Gusts 3.0 mph

Today
High -- | Low -- °F
--% Chance of Precip.
Yesterday
High -- | Low -- °F
Precip. -- in
Pressure 29.91 in
Visibility 4.0 miles
Clouds Overcast 400 ft
Windchill 30 °F
Dew Point 30 °F
Humidity 100%
Rainfall 0.01 in
Snow Depth Not available.
7:09 AM 4:20 PM
Waxing Crescent, 38% visible
METAR KBUU 060555Z AUTO 00000KT 4SM BR OVC004 M01/M01 A2991 RMK AO2 T10071011 11001 21008 400051008
Pressure 29.91 in
Visibility 4.0 miles
Clouds Overcast 400 ft
Windchill 30 °F
Dew Point 30 °F
Humidity 100%
Rainfall 0.01 in
Snow Depth Not available.
7:09 AM 4:20 PM
Waxing Crescent, 38% visible
METAR KBUU 060555Z AUTO 00000KT 4SM BR OVC004 M01/M01 A2991 RMK AO2 T10071011 11001 21008 400051008

10-Day Weather Forecast

Almanac

Astronomy

Dec. 06, 2016 Rise Set
Actual Time
Civil Twilight
Nautical Twilight
Astronomical Twilight
Moon
Length of Visible Light
Length of Day
Tomorrow will be .
, % of the Moon is Illuminated

Today's Extremes

State Highs State Lows

Community

WunderPhotos

Upload Photos

1,955,932 photos uploaded!

WunderBlog® & News

Nearby

Air Quality

  Air Quality AQ Index Pollutant
Not available.

Snow Depth

Station Depth Elevation

Earthquake Activity

City Distance Mag. Time & Date
Minimum magnitude displayed is 2.5.

Coastal Water Temperatures

Place Temperature

Stations

Nearby Weather Stations

Station Location Temp. Windchill Dew Point Humidity Wind Precip. Elev Updated Type
                   

Watches & Warnings

There are currently no watches in effect.